createdAt,value
2018-09-14T06:18:32.651Z,10.95
2018-09-14T06:21:00.169Z,11.05
2018-09-14T06:23:27.562Z,10.60
2018-09-14T06:25:54.958Z,11.07
2018-09-14T06:28:22.535Z,10.90
2018-09-14T06:30:49.943Z,10.82
2018-09-14T06:33:17.776Z,10.63
2018-09-14T06:35:47.772Z,9.80
2018-09-14T06:38:15.276Z,10.63
2018-09-14T06:40:42.727Z,10.60
2018-09-14T06:43:10.230Z,10.98
2018-09-14T06:45:37.602Z,10.32
2018-09-14T06:48:05.055Z,10.70
2018-09-14T06:50:32.482Z,10.35
2018-09-14T06:52:59.999Z,10.72
2018-09-14T06:55:27.500Z,10.72
2018-09-14T06:57:54.957Z,11.22
2018-09-14T07:00:22.502Z,10.88
2018-09-14T07:02:49.985Z,11.00
2018-09-14T07:05:17.438Z,10.53
2018-09-14T07:07:44.869Z,10.80
2018-09-14T07:10:12.353Z,10.60
2018-09-14T07:12:39.842Z,11.07
2018-09-14T07:15:07.320Z,10.73
2018-09-14T07:17:34.874Z,11.05
2018-09-14T07:20:02.362Z,10.30
2018-09-14T07:22:30.026Z,10.23
2018-09-14T07:24:57.640Z,10.40
2018-09-14T07:27:25.155Z,10.40
2018-09-14T07:29:52.968Z,10.13
2018-09-14T07:32:20.624Z,9.88
2018-09-14T07:34:48.039Z,9.50
2018-09-14T07:37:15.436Z,9.30
2018-09-14T07:39:42.893Z,10.03
2018-09-14T07:42:10.364Z,9.33
2018-09-14T07:44:37.871Z,9.40
2018-09-14T07:47:05.362Z,9.63
2018-09-14T07:49:32.756Z,9.90
2018-09-14T07:52:00.509Z,9.40
2018-09-14T07:54:27.862Z,9.53
2018-09-14T07:56:55.309Z,9.53
2018-09-14T07:59:24.714Z,9.10
2018-09-14T08:01:52.150Z,9.35
2018-09-14T08:04:27.386Z,9.43
2018-09-14T08:06:55.005Z,9.70
2018-09-14T08:09:22.424Z,9.73
2018-09-14T08:11:50.128Z,9.73
2018-09-14T08:14:17.743Z,9.28
2018-09-14T08:16:57.430Z,9.63
2018-09-14T08:19:24.942Z,9.03
2018-09-14T08:21:53.572Z,9.13
2018-09-14T08:24:20.973Z,8.83
2018-09-14T08:26:48.526Z,10.40
2018-09-14T08:29:16.129Z,9.93
2018-09-14T08:31:43.711Z,10.00
2018-09-14T08:34:11.225Z,9.93
2018-09-14T08:36:40.334Z,9.70
2018-09-14T08:39:12.547Z,9.45
2018-09-14T08:41:40.276Z,10.03
2018-09-14T08:44:26.870Z,10.20
2018-09-14T08:46:54.616Z,10.60
2018-09-14T08:49:22.185Z,10.72
2018-09-14T08:51:49.853Z,10.68
2018-09-14T08:54:17.325Z,11.15
2018-09-14T08:56:44.798Z,11.10
2018-09-14T08:59:12.319Z,11.45
2018-09-14T09:01:39.825Z,10.90
2018-09-14T09:04:07.488Z,11.93
2018-09-14T09:06:38.221Z,11.95
2018-09-14T09:09:08.081Z,11.43
2018-09-14T09:11:35.487Z,11.93
2018-09-14T09:14:03.009Z,12.10
2018-09-14T09:16:30.439Z,12.07
2018-09-14T09:18:57.853Z,13.15
2018-09-14T09:21:25.325Z,12.45
2018-09-14T09:23:52.815Z,11.28
2018-09-14T09:26:20.359Z,12.40
2018-09-14T09:28:47.822Z,13.45
2018-09-14T09:31:15.268Z,13.75
2018-09-14T09:33:42.728Z,12.90
2018-09-14T09:36:10.232Z,13.20
2018-09-14T09:38:37.752Z,12.58
2018-09-14T09:41:05.552Z,12.07
2018-09-14T09:43:33.142Z,12.13
2018-09-14T09:46:00.598Z,12.82
2018-09-14T09:48:28.060Z,12.23
2018-09-14T09:50:55.578Z,12.10
2018-09-14T09:53:22.892Z,11.90
2018-09-14T09:55:50.347Z,11.55
2018-09-14T09:58:17.836Z,12.45
2018-09-14T10:00:50.886Z,13.03
2018-09-14T10:03:24.042Z,12.88
2018-09-14T10:05:55.676Z,13.80
2018-09-14T10:08:23.206Z,13.75
2018-09-14T10:10:50.615Z,14.25
2018-09-14T10:13:18.059Z,14.93
2018-09-14T10:15:45.529Z,13.45
2018-09-14T10:18:12.921Z,14.00
2018-09-14T10:20:40.458Z,14.87
2018-09-14T10:23:07.856Z,14.65
2018-09-14T10:25:35.276Z,14.85
2018-09-14T10:28:02.680Z,16.60
2018-09-14T10:30:30.105Z,16.25
2018-09-14T10:32:57.595Z,16.17
2018-09-14T10:35:25.038Z,16.57
2018-09-14T10:37:52.390Z,16.82
2018-09-14T10:40:19.882Z,16.50
2018-09-14T10:42:48.411Z,16.93
2018-09-14T10:45:16.131Z,17.73
2018-09-14T10:47:46.114Z,16.87
2018-09-14T10:50:14.898Z,17.35
2018-09-14T10:52:42.506Z,17.57
2018-09-14T10:55:09.997Z,17.73
2018-09-14T10:57:37.467Z,17.90
2018-09-14T11:00:05.344Z,18.07
2018-09-14T11:02:32.830Z,17.57
2018-09-14T11:05:00.361Z,18.07
2018-09-14T11:07:27.856Z,17.73
2018-09-14T11:09:55.372Z,18.80
2018-09-14T11:12:22.870Z,19.35
2018-09-14T11:14:50.453Z,20.40
2018-09-14T11:17:17.949Z,19.15
2018-09-14T11:19:45.467Z,18.40
2018-09-14T11:22:13.054Z,19.12
2018-09-14T11:24:40.512Z,20.15
2018-09-14T11:27:07.879Z,21.25
2018-09-14T11:29:35.387Z,21.05
2018-09-14T11:32:02.876Z,20.88
2018-09-14T11:34:30.388Z,20.60
2018-09-14T11:36:57.787Z,20.25
2018-09-14T11:39:25.237Z,19.87
2018-09-14T11:41:52.723Z,20.27
2018-09-14T11:44:20.146Z,20.00
2018-09-14T11:46:47.554Z,19.37
2018-09-14T11:49:15.091Z,19.10
2018-09-14T11:51:42.582Z,19.67
2018-09-14T11:54:10.108Z,18.85
2018-09-14T11:56:37.659Z,19.73
2018-09-14T11:59:05.152Z,17.52
2018-09-14T12:01:32.647Z,16.70
2018-09-14T12:04:01.467Z,16.12
2018-09-14T12:06:29.057Z,16.32
2018-09-14T12:08:56.557Z,14.70
2018-09-14T12:11:23.929Z,12.70
2018-09-14T12:13:51.411Z,12.33
2018-09-14T12:16:18.855Z,13.95
2018-09-14T12:18:46.370Z,14.25
2018-09-14T12:21:16.617Z,15.05
2018-09-14T15:36:23.298Z,3.20
2018-09-14T15:39:00.355Z,3.62
2018-09-14T15:41:35.294Z,3.50
